sensor_id;sensor_type;location;lat;lon;timestamp;temperature;humidity
15386;DHT22;7791;47.246;9.648;2022-12-18T00:00:15;-5.90;99.90
15386;DHT22;7791;47.246;9.648;2022-12-18T00:02:41;-6.00;99.90
15386;DHT22;7791;47.246;9.648;2022-12-18T00:05:07;-6.10;99.90
15386;DHT22;7791;47.246;9.648;2022-12-18T00:07:37;-6.30;99.90
15386;DHT22;7791;47.246;9.648;2022-12-18T00:10:05;-6.40;99.90
15386;DHT22;7791;47.246;9.648;2022-12-18T00:12:31;-6.60;99.90
15386;DHT22;7791;47.246;9.648;2022-12-18T00:14:58;-6.60;99.90
15386;DHT22;7791;47.246;9.648;2022-12-18T00:17:24;-6.70;99.90
15386;DHT22;7791;47.246;9.648;2022-12-18T00:19:51;-6.80;99.90
15386;DHT22;7791;47.246;9.648;2022-12-18T00:22:17;-6.90;99.90
15386;DHT22;7791;47.246;9.648;2022-12-18T00:24:43;-6.90;99.90
15386;DHT22;7791;47.246;9.648;2022-12-18T00:27:14;-6.90;99.90
15386;DHT22;7791;47.246;9.648;2022-12-18T00:29:39;-7.00;99.90
15386;DHT22;7791;47.246;9.648;2022-12-18T00:32:07;-7.00;99.90
15386;DHT22;7791;47.246;9.648;2022-12-18T00:34:34;-7.00;99.90
15386;DHT22;7791;47.246;9.648;2022-12-18T00:37:00;-7.00;99.90
15386;DHT22;7791;47.246;9.648;2022-12-18T00:39:26;-7.10;99.90
15386;DHT22;7791;47.246;9.648;2022-12-18T00:41:54;-7.10;99.90
15386;DHT22;7791;47.246;9.648;2022-12-18T00:44:23;-7.10;99.90
15386;DHT22;7791;47.246;9.648;2022-12-18T00:46:49;-7.10;99.90
15386;DHT22;7791;47.246;9.648;2022-12-18T00:49:16;-7.10;99.90
15386;DHT22;7791;47.246;9.648;2022-12-18T00:51:42;-7.20;99.90
15386;DHT22;7791;47.246;9.648;2022-12-18T00:54:08;-7.20;99.90
15386;DHT22;7791;47.246;9.648;2022-12-18T00:56:36;-7.20;99.90
15386;DHT22;7791;47.246;9.648;2022-12-18T00:59:03;-7.30;99.90
15386;DHT22;7791;47.246;9.648;2022-12-18T01:01:31;-7.40;99.90
15386;DHT22;7791;47.246;9.648;2022-12-18T01:03:59;-7.40;99.90
15386;DHT22;7791;47.246;9.648;2022-12-18T01:06:25;-7.40;99.90
15386;DHT22;7791;47.246;9.648;2022-12-18T01:08:52;-7.50;99.90
15386;DHT22;7791;47.246;9.648;2022-12-18T01:11:20;-7.60;99.90
15386;DHT22;7791;47.246;9.648;2022-12-18T01:13:47;-7.50;99.90
15386;DHT22;7791;47.246;9.648;2022-12-18T01:16:15;-7.50;99.90
15386;DHT22;7791;47.246;9.648;2022-12-18T01:18:51;-7.60;99.90
15386;DHT22;7791;47.246;9.648;2022-12-18T01:21:23;-7.60;99.90
15386;DHT22;7791;47.246;9.648;2022-12-18T01:23:51;-7.70;99.90
15386;DHT22;7791;47.246;9.648;2022-12-18T01:26:17;-7.80;99.90
15386;DHT22;7791;47.246;9.648;2022-12-18T01:28:44;-7.80;99.90
15386;DHT22;7791;47.246;9.648;2022-12-18T01:31:11;-7.80;99.90
15386;DHT22;7791;47.246;9.648;2022-12-18T01:33:39;-7.80;99.90
15386;DHT22;7791;47.246;9.648;2022-12-18T01:36:07;-7.90;99.90
15386;DHT22;7791;47.246;9.648;2022-12-18T01:38:35;-8.00;99.90
15386;DHT22;7791;47.246;9.648;2022-12-18T01:41:01;-7.90;99.90
15386;DHT22;7791;47.246;9.648;2022-12-18T01:43:46;-8.00;99.90
15386;DHT22;7791;47.246;9.648;2022-12-18T01:46:13;-8.00;99.90
15386;DHT22;7791;47.246;9.648;2022-12-18T01:48:42;-7.90;99.90
15386;DHT22;7791;47.246;9.648;2022-12-18T01:51:13;-7.80;99.90
15386;DHT22;7791;47.246;9.648;2022-12-18T01:53:57;-7.80;99.90
15386;DHT22;7791;47.246;9.648;2022-12-18T01:56:24;-8.00;99.90
15386;DHT22;7791;47.246;9.648;2022-12-18T01:58:56;-8.10;99.90
15386;DHT22;7791;47.246;9.648;2022-12-18T02:01:25;-8.00;99.90
15386;DHT22;7791;47.246;9.648;2022-12-18T02:03:51;-8.00;99.90
15386;DHT22;7791;47.246;9.648;2022-12-18T02:06:21;-8.10;99.90
15386;DHT22;7791;47.246;9.648;2022-12-18T02:08:59;-8.10;99.90
15386;DHT22;7791;47.246;9.648;2022-12-18T02:11:37;-8.20;99.90
15386;DHT22;7791;47.246;9.648;2022-12-18T02:14:16;-8.30;99.90
15386;DHT22;7791;47.246;9.648;2022-12-18T02:16:47;-8.40;99.90
15386;DHT22;7791;47.246;9.648;2022-12-18T02:19:37;-8.40;99.90
15386;DHT22;7791;47.246;9.648;2022-12-18T02:22:21;-8.20;99.90
15386;DHT22;7791;47.246;9.648;2022-12-18T02:24:58;-8.20;99.90
15386;DHT22;7791;47.246;9.648;2022-12-18T02:27:30;-8.30;99.90
15386;DHT22;7791;47.246;9.648;2022-12-18T02:30:00;-8.30;99.90
15386;DHT22;7791;47.246;9.648;2022-12-18T02:32:30;-8.40;99.90
15386;DHT22;7791;47.246;9.648;2022-12-18T02:34:59;-8.40;99.90
15386;DHT22;7791;47.246;9.648;2022-12-18T02:37:28;-8.50;99.90
15386;DHT22;7791;47.246;9.648;2022-12-18T02:39:59;-8.50;99.90
15386;DHT22;7791;47.246;9.648;2022-12-18T02:42:29;-8.40;99.90
15386;DHT22;7791;47.246;9.648;2022-12-18T02:44:56;-8.30;99.90
15386;DHT22;7791;47.246;9.648;2022-12-18T02:47:23;-8.30;99.90
15386;DHT22;7791;47.246;9.648;2022-12-18T02:49:57;-8.20;99.90
15386;DHT22;7791;47.246;9.648;2022-12-18T02:52:33;-8.30;99.90
15386;DHT22;7791;47.246;9.648;2022-12-18T02:55:14;-8.30;99.90
15386;DHT22;7791;47.246;9.648;2022-12-18T02:57:48;-8.20;99.90
15386;DHT22;7791;47.246;9.648;2022-12-18T03:00:18;-8.10;99.90
15386;DHT22;7791;47.246;9.648;2022-12-18T03:02:51;-8.00;99.90
15386;DHT22;7791;47.246;9.648;2022-12-18T03:05:22;-7.80;99.90
15386;DHT22;7791;47.246;9.648;2022-12-18T03:07:53;-7.90;99.90
15386;DHT22;7791;47.246;9.648;2022-12-18T03:10:26;-8.10;99.90
15386;DHT22;7791;47.246;9.648;2022-12-18T03:13:02;-8.20;99.90
15386;DHT22;7791;47.246;9.648;2022-12-18T03:15:31;-8.30;99.90
15386;DHT22;7791;47.246;9.648;2022-12-18T03:18:04;-8.50;99.90
15386;DHT22;7791;47.246;9.648;2022-12-18T03:20:34;-8.50;99.90
15386;DHT22;7791;47.246;9.648;2022-12-18T03:23:04;-8.50;99.90
15386;DHT22;7791;47.246;9.648;2022-12-18T03:25:33;-8.40;99.90
15386;DHT22;7791;47.246;9.648;2022-12-18T03:28:03;-8.40;99.90
15386;DHT22;7791;47.246;9.648;2022-12-18T03:30:33;-8.50;99.90
15386;DHT22;7791;47.246;9.648;2022-12-18T03:33:05;-8.50;99.90
15386;DHT22;7791;47.246;9.648;2022-12-18T03:35:35;-8.60;99.90
15386;DHT22;7791;47.246;9.648;2022-12-18T03:38:02;-8.60;99.90
15386;DHT22;7791;47.246;9.648;2022-12-18T03:40:35;-8.60;99.90
15386;DHT22;7791;47.246;9.648;2022-12-18T03:43:10;-8.70;99.90
15386;DHT22;7791;47.246;9.648;2022-12-18T03:45:44;-8.80;99.90
15386;DHT22;7791;47.246;9.648;2022-12-18T03:48:17;-8.90;99.90
15386;DHT22;7791;47.246;9.648;2022-12-18T03:50:46;-8.90;99.90
15386;DHT22;7791;47.246;9.648;2022-12-18T03:53:22;-8.80;99.90
15386;DHT22;7791;47.246;9.648;2022-12-18T03:55:51;-8.60;99.90
15386;DHT22;7791;47.246;9.648;2022-12-18T03:58:21;-8.60;99.90
15386;DHT22;7791;47.246;9.648;2022-12-18T04:00:51;-8.70;99.90
15386;DHT22;7791;47.246;9.648;2022-12-18T04:03:19;-8.70;99.90
15386;DHT22;7791;47.246;9.648;2022-12-18T04:05:49;-8.70;99.90
15386;DHT22;7791;47.246;9.648;2022-12-18T04:08:16;-8.70;99.90
15386;DHT22;7791;47.246;9.648;2022-12-18T04:10:45;-8.60;99.90
15386;DHT22;7791;47.246;9.648;2022-12-18T04:13:11;-8.60;99.90
15386;DHT22;7791;47.246;9.648;2022-12-18T04:15:38;-8.60;99.90
15386;DHT22;7791;47.246;9.648;2022-12-18T04:18:05;-8.70;99.90
15386;DHT22;7791;47.246;9.648;2022-12-18T04:20:31;-8.70;99.90
15386;DHT22;7791;47.246;9.648;2022-12-18T04:22:57;-8.60;99.90
15386;DHT22;7791;47.246;9.648;2022-12-18T04:25:39;-8.60;99.90
15386;DHT22;7791;47.246;9.648;2022-12-18T04:28:07;-8.70;99.90
15386;DHT22;7791;47.246;9.648;2022-12-18T04:30:35;-8.70;99.90
15386;DHT22;7791;47.246;9.648;2022-12-18T04:33:05;-8.80;99.90
15386;DHT22;7791;47.246;9.648;2022-12-18T04:35:33;-8.90;99.90
15386;DHT22;7791;47.246;9.648;2022-12-18T04:37:59;-8.90;99.90
15386;DHT22;7791;47.246;9.648;2022-12-18T04:40:25;-8.80;99.90
15386;DHT22;7791;47.246;9.648;2022-12-18T04:42:54;-8.70;99.90
15386;DHT22;7791;47.246;9.648;2022-12-18T04:45:20;-8.60;99.90
15386;DHT22;7791;47.246;9.648;2022-12-18T04:47:47;-8.50;99.90
15386;DHT22;7791;47.246;9.648;2022-12-18T04:50:15;-8.30;99.90
15386;DHT22;7791;47.246;9.648;2022-12-18T04:52:42;-8.30;99.90
15386;DHT22;7791;47.246;9.648;2022-12-18T04:55:08;-8.30;99.90
15386;DHT22;7791;47.246;9.648;2022-12-18T04:57:55;-8.40;99.90
15386;DHT22;7791;47.246;9.648;2022-12-18T05:00:21;-8.50;99.90
15386;DHT22;7791;47.246;9.648;2022-12-18T05:02:47;-8.60;99.90
15386;DHT22;7791;47.246;9.648;2022-12-18T05:05:15;-8.70;99.90
15386;DHT22;7791;47.246;9.648;2022-12-18T05:07:41;-9.00;99.90
15386;DHT22;7791;47.246;9.648;2022-12-18T05:10:08;-9.10;99.90
15386;DHT22;7791;47.246;9.648;2022-12-18T05:12:34;-9.10;99.90
15386;DHT22;7791;47.246;9.648;2022-12-18T05:15:03;-9.10;99.90
15386;DHT22;7791;47.246;9.648;2022-12-18T05:17:30;-9.20;99.90
15386;DHT22;7791;47.246;9.648;2022-12-18T05:19:57;-9.20;99.90
15386;DHT22;7791;47.246;9.648;2022-12-18T05:22:24;-9.20;99.90
15386;DHT22;7791;47.246;9.648;2022-12-18T05:24:50;-9.30;99.90
15386;DHT22;7791;47.246;9.648;2022-12-18T05:27:18;-9.30;99.90
15386;DHT22;7791;47.246;9.648;2022-12-18T05:29:45;-9.30;99.90
15386;DHT22;7791;47.246;9.648;2022-12-18T05:32:11;-9.00;99.90
15386;DHT22;7791;47.246;9.648;2022-12-18T05:34:37;-8.80;99.90
15386;DHT22;7791;47.246;9.648;2022-12-18T05:37:05;-8.70;99.90
15386;DHT22;7791;47.246;9.648;2022-12-18T05:39:33;-8.90;99.90
15386;DHT22;7791;47.246;9.648;2022-12-18T05:41:59;-9.00;99.90
15386;DHT22;7791;47.246;9.648;2022-12-18T05:44:24;-9.10;99.90
15386;DHT22;7791;47.246;9.648;2022-12-18T05:46:50;-9.30;99.90
15386;DHT22;7791;47.246;9.648;2022-12-18T05:49:16;-9.40;99.90
15386;DHT22;7791;47.246;9.648;2022-12-18T05:51:43;-9.50;99.90
15386;DHT22;7791;47.246;9.648;2022-12-18T05:54:09;-9.60;99.90
15386;DHT22;7791;47.246;9.648;2022-12-18T05:56:36;-9.60;99.90
15386;DHT22;7791;47.246;9.648;2022-12-18T05:59:02;-9.70;99.90
15386;DHT22;7791;47.246;9.648;2022-12-18T06:01:29;-9.70;99.90
15386;DHT22;7791;47.246;9.648;2022-12-18T06:03:55;-9.80;99.90
15386;DHT22;7791;47.246;9.648;2022-12-18T06:06:24;-9.90;99.90
15386;DHT22;7791;47.246;9.648;2022-12-18T06:08:52;-9.90;99.90
15386;DHT22;7791;47.246;9.648;2022-12-18T06:11:20;-9.80;99.90
15386;DHT22;7791;47.246;9.648;2022-12-18T06:13:51;-9.70;99.90
15386;DHT22;7791;47.246;9.648;2022-12-18T06:16:17;-9.70;99.90
15386;DHT22;7791;47.246;9.648;2022-12-18T06:18:44;-9.70;99.90
15386;DHT22;7791;47.246;9.648;2022-12-18T06:21:10;-9.70;99.90
15386;DHT22;7791;47.246;9.648;2022-12-18T06:23:35;-9.70;99.90
15386;DHT22;7791;47.246;9.648;2022-12-18T06:26:04;-9.80;99.90
15386;DHT22;7791;47.246;9.648;2022-12-18T06:28:32;-9.80;99.90
15386;DHT22;7791;47.246;9.648;2022-12-18T06:31:05;-9.90;99.90
15386;DHT22;7791;47.246;9.648;2022-12-18T06:33:32;-10.00;99.90
15386;DHT22;7791;47.246;9.648;2022-12-18T06:36:01;-10.10;99.90
15386;DHT22;7791;47.246;9.648;2022-12-18T06:38:27;-10.10;99.90
15386;DHT22;7791;47.246;9.648;2022-12-18T06:40:54;-10.00;99.90
15386;DHT22;7791;47.246;9.648;2022-12-18T06:43:25;-9.90;99.90
15386;DHT22;7791;47.246;9.648;2022-12-18T06:46:02;-9.80;99.90
15386;DHT22;7791;47.246;9.648;2022-12-18T06:48:28;-9.60;99.90
15386;DHT22;7791;47.246;9.648;2022-12-18T06:50:55;-9.40;99.90
15386;DHT22;7791;47.246;9.648;2022-12-18T06:53:22;-9.40;99.90
15386;DHT22;7791;47.246;9.648;2022-12-18T06:55:48;-9.50;99.90
15386;DHT22;7791;47.246;9.648;2022-12-18T06:58:15;-9.80;99.90
15386;DHT22;7791;47.246;9.648;2022-12-18T07:00:41;-9.90;99.90
15386;DHT22;7791;47.246;9.648;2022-12-18T07:03:09;-9.90;99.90
15386;DHT22;7791;47.246;9.648;2022-12-18T07:05:40;-9.80;99.90
15386;DHT22;7791;47.246;9.648;2022-12-18T07:08:08;-9.70;99.90
15386;DHT22;7791;47.246;9.648;2022-12-18T07:10:33;-9.70;99.90
15386;DHT22;7791;47.246;9.648;2022-12-18T07:13:00;-9.60;99.90
15386;DHT22;7791;47.246;9.648;2022-12-18T07:18:31;-9.60;99.90
15386;DHT22;7791;47.246;9.648;2022-12-18T07:21:04;-9.60;99.90
15386;DHT22;7791;47.246;9.648;2022-12-18T07:23:29;-9.50;99.90
15386;DHT22;7791;47.246;9.648;2022-12-18T07:25:55;-9.40;99.90
15386;DHT22;7791;47.246;9.648;2022-12-18T07:28:26;-9.40;99.90
15386;DHT22;7791;47.246;9.648;2022-12-18T07:31:10;-9.40;99.90
15386;DHT22;7791;47.246;9.648;2022-12-18T07:33:38;-9.50;99.90
15386;DHT22;7791;47.246;9.648;2022-12-18T07:36:06;-9.60;99.90
15386;DHT22;7791;47.246;9.648;2022-12-18T07:38:33;-9.70;99.90
15386;DHT22;7791;47.246;9.648;2022-12-18T07:41:00;-9.70;99.90
15386;DHT22;7791;47.246;9.648;2022-12-18T07:43:27;-9.70;99.90
15386;DHT22;7791;47.246;9.648;2022-12-18T07:46:00;-9.70;99.90
15386;DHT22;7791;47.246;9.648;2022-12-18T07:48:27;-9.70;99.90
15386;DHT22;7791;47.246;9.648;2022-12-18T07:50:58;-9.60;99.90
15386;DHT22;7791;47.246;9.648;2022-12-18T07:53:24;-9.60;99.90
15386;DHT22;7791;47.246;9.648;2022-12-18T07:55:55;-9.50;99.90
15386;DHT22;7791;47.246;9.648;2022-12-18T07:58:21;-9.40;99.90
15386;DHT22;7791;47.246;9.648;2022-12-18T08:00:48;-9.40;99.90
15386;DHT22;7791;47.246;9.648;2022-12-18T08:03:15;-9.40;99.90
15386;DHT22;7791;47.246;9.648;2022-12-18T08:05:41;-9.40;99.90
15386;DHT22;7791;47.246;9.648;2022-12-18T08:08:08;-9.40;99.90
15386;DHT22;7791;47.246;9.648;2022-12-18T08:10:34;-9.30;99.90
15386;DHT22;7791;47.246;9.648;2022-12-18T08:13:00;-9.20;99.90
15386;DHT22;7791;47.246;9.648;2022-12-18T08:15:27;-9.00;99.90
15386;DHT22;7791;47.246;9.648;2022-12-18T08:17:56;-8.80;99.90
15386;DHT22;7791;47.246;9.648;2022-12-18T08:20:23;-8.70;99.90
15386;DHT22;7791;47.246;9.648;2022-12-18T08:22:50;-8.50;99.90
15386;DHT22;7791;47.246;9.648;2022-12-18T08:25:18;-8.30;99.90
15386;DHT22;7791;47.246;9.648;2022-12-18T08:27:44;-8.20;99.90
15386;DHT22;7791;47.246;9.648;2022-12-18T08:30:12;-7.90;99.90
15386;DHT22;7791;47.246;9.648;2022-12-18T08:32:41;-7.70;99.90
15386;DHT22;7791;47.246;9.648;2022-12-18T08:35:07;-7.00;99.90
15386;DHT22;7791;47.246;9.648;2022-12-18T08:37:33;-6.00;99.90
15386;DHT22;7791;47.246;9.648;2022-12-18T08:39:59;-4.90;99.90
15386;DHT22;7791;47.246;9.648;2022-12-18T08:42:27;-3.90;99.90
15386;DHT22;7791;47.246;9.648;2022-12-18T08:44:52;-3.20;99.90
15386;DHT22;7791;47.246;9.648;2022-12-18T08:47:37;-2.50;99.90
15386;DHT22;7791;47.246;9.648;2022-12-18T08:50:03;-1.60;99.90
15386;DHT22;7791;47.246;9.648;2022-12-18T08:52:31;-0.90;99.90
15386;DHT22;7791;47.246;9.648;2022-12-18T08:55:00;-0.20;99.90
15386;DHT22;7791;47.246;9.648;2022-12-18T08:57:31;0.50;99.90
15386;DHT22;7791;47.246;9.648;2022-12-18T08:59:57;1.00;99.90
15386;DHT22;7791;47.246;9.648;2022-12-18T09:02:23;1.50;99.90
15386;DHT22;7791;47.246;9.648;2022-12-18T09:04:50;2.10;99.90
15386;DHT22;7791;47.246;9.648;2022-12-18T09:07:16;2.60;99.90
15386;DHT22;7791;47.246;9.648;2022-12-18T09:09:46;3.00;99.90
15386;DHT22;7791;47.246;9.648;2022-12-18T09:12:13;3.10;99.90
15386;DHT22;7791;47.246;9.648;2022-12-18T09:14:40;3.30;99.90
15386;DHT22;7791;47.246;9.648;2022-12-18T09:17:06;3.40;99.90
15386;DHT22;7791;47.246;9.648;2022-12-18T09:19:32;3.50;99.90
15386;DHT22;7791;47.246;9.648;2022-12-18T09:21:58;3.70;99.90
15386;DHT22;7791;47.246;9.648;2022-12-18T09:24:24;3.90;99.90
15386;DHT22;7791;47.246;9.648;2022-12-18T09:26:53;3.90;99.90
15386;DHT22;7791;47.246;9.648;2022-12-18T09:29:19;3.20;99.90
15386;DHT22;7791;47.246;9.648;2022-12-18T09:31:46;2.70;99.90
15386;DHT22;7791;47.246;9.648;2022-12-18T09:34:18;3.00;99.90
15386;DHT22;7791;47.246;9.648;2022-12-18T09:36:44;3.80;99.90
15386;DHT22;7791;47.246;9.648;2022-12-18T09:39:10;4.40;99.90
15386;DHT22;7791;47.246;9.648;2022-12-18T09:41:45;4.80;99.90
15386;DHT22;7791;47.246;9.648;2022-12-18T09:44:16;5.40;99.90
15386;DHT22;7791;47.246;9.648;2022-12-18T09:46:47;5.50;99.90
15386;DHT22;7791;47.246;9.648;2022-12-18T09:49:30;5.70;99.90
15386;DHT22;7791;47.246;9.648;2022-12-18T09:52:02;5.00;99.90
15386;DHT22;7791;47.246;9.648;2022-12-18T09:54:35;4.90;99.90
15386;DHT22;7791;47.246;9.648;2022-12-18T09:57:06;4.70;99.90
15386;DHT22;7791;47.246;9.648;2022-12-18T09:59:38;4.80;99.90
15386;DHT22;7791;47.246;9.648;2022-12-18T10:02:17;4.80;99.90
15386;DHT22;7791;47.246;9.648;2022-12-18T10:04:43;4.60;99.90
15386;DHT22;7791;47.246;9.648;2022-12-18T10:07:17;4.30;99.90
15386;DHT22;7791;47.246;9.648;2022-12-18T10:09:51;4.90;99.90
15386;DHT22;7791;47.246;9.648;2022-12-18T10:12:23;5.90;99.90
15386;DHT22;7791;47.246;9.648;2022-12-18T10:14:57;6.50;99.90
15386;DHT22;7791;47.246;9.648;2022-12-18T10:17:34;6.70;99.90
15386;DHT22;7791;47.246;9.648;2022-12-18T10:20:12;6.90;99.90
15386;DHT22;7791;47.246;9.648;2022-12-18T10:22:49;7.20;99.90
15386;DHT22;7791;47.246;9.648;2022-12-18T10:25:21;7.40;99.90
15386;DHT22;7791;47.246;9.648;2022-12-18T10:27:52;7.60;99.90
15386;DHT22;7791;47.246;9.648;2022-12-18T10:30:24;7.60;99.90
15386;DHT22;7791;47.246;9.648;2022-12-18T10:32:53;7.30;99.90
15386;DHT22;7791;47.246;9.648;2022-12-18T10:35:21;7.30;99.90
15386;DHT22;7791;47.246;9.648;2022-12-18T10:38:05;7.40;99.90
15386;DHT22;7791;47.246;9.648;2022-12-18T10:40:32;7.50;99.90
15386;DHT22;7791;47.246;9.648;2022-12-18T10:43:10;7.40;99.90
15386;DHT22;7791;47.246;9.648;2022-12-18T10:45:37;7.90;99.90
15386;DHT22;7791;47.246;9.648;2022-12-18T10:48:18;8.40;99.90
15386;DHT22;7791;47.246;9.648;2022-12-18T10:50:49;8.60;99.90
15386;DHT22;7791;47.246;9.648;2022-12-18T10:53:20;8.80;99.90
15386;DHT22;7791;47.246;9.648;2022-12-18T10:55:49;8.80;99.90
15386;DHT22;7791;47.246;9.648;2022-12-18T10:58:22;8.90;99.90
15386;DHT22;7791;47.246;9.648;2022-12-18T11:01:03;9.10;99.90
15386;DHT22;7791;47.246;9.648;2022-12-18T11:03:34;9.40;99.90
15386;DHT22;7791;47.246;9.648;2022-12-18T11:06:06;9.40;99.90
15386;DHT22;7791;47.246;9.648;2022-12-18T11:08:36;9.50;99.90
15386;DHT22;7791;47.246;9.648;2022-12-18T11:11:15;8.40;99.90
15386;DHT22;7791;47.246;9.648;2022-12-18T11:13:51;7.60;99.90
15386;DHT22;7791;47.246;9.648;2022-12-18T11:16:19;7.00;99.90
15386;DHT22;7791;47.246;9.648;2022-12-18T11:18:47;6.20;99.90
15386;DHT22;7791;47.246;9.648;2022-12-18T11:21:13;5.10;99.90
15386;DHT22;7791;47.246;9.648;2022-12-18T11:23:48;4.30;99.90
15386;DHT22;7791;47.246;9.648;2022-12-18T11:26:15;4.20;99.90
15386;DHT22;7791;47.246;9.648;2022-12-18T11:28:43;3.40;99.90
15386;DHT22;7791;47.246;9.648;2022-12-18T11:31:24;3.60;99.90
15386;DHT22;7791;47.246;9.648;2022-12-18T11:33:58;3.20;99.90
15386;DHT22;7791;47.246;9.648;2022-12-18T11:36:29;2.30;99.90
15386;DHT22;7791;47.246;9.648;2022-12-18T11:39:20;1.60;99.90
15386;DHT22;7791;47.246;9.648;2022-12-18T11:41:53;1.30;99.90
15386;DHT22;7791;47.246;9.648;2022-12-18T11:44:26;1.00;99.90
15386;DHT22;7791;47.246;9.648;2022-12-18T11:46:56;0.80;99.90
15386;DHT22;7791;47.246;9.648;2022-12-18T11:49:32;0.70;99.90
15386;DHT22;7791;47.246;9.648;2022-12-18T11:52:01;0.70;99.90
15386;DHT22;7791;47.246;9.648;2022-12-18T11:54:34;0.10;99.90
15386;DHT22;7791;47.246;9.648;2022-12-18T11:57:06;0.30;99.90
15386;DHT22;7791;47.246;9.648;2022-12-18T11:59:40;0.10;99.90
15386;DHT22;7791;47.246;9.648;2022-12-18T12:02:24;-0.40;99.90
15386;DHT22;7791;47.246;9.648;2022-12-18T12:05:23;-0.80;99.90
15386;DHT22;7791;47.246;9.648;2022-12-18T12:07:59;-1.00;99.90
15386;DHT22;7791;47.246;9.648;2022-12-18T12:10:40;-1.00;99.90
15386;DHT22;7791;47.246;9.648;2022-12-18T12:13:22;-0.80;99.90
15386;DHT22;7791;47.246;9.648;2022-12-18T12:16:03;-0.70;99.90
15386;DHT22;7791;47.246;9.648;2022-12-18T12:18:44;-1.00;99.90
15386;DHT22;7791;47.246;9.648;2022-12-18T12:21:20;-1.00;99.90
15386;DHT22;7791;47.246;9.648;2022-12-18T12:23:55;-0.90;99.90
15386;DHT22;7791;47.246;9.648;2022-12-18T12:26:29;-0.70;99.90
15386;DHT22;7791;47.246;9.648;2022-12-18T12:29:02;-0.60;99.90
15386;DHT22;7791;47.246;9.648;2022-12-18T12:31:50;-0.60;99.90
15386;DHT22;7791;47.246;9.648;2022-12-18T12:34:23;-0.80;99.90
15386;DHT22;7791;47.246;9.648;2022-12-18T12:37:06;-1.00;99.90
15386;DHT22;7791;47.246;9.648;2022-12-18T12:39:37;-1.20;99.90
15386;DHT22;7791;47.246;9.648;2022-12-18T12:42:05;-1.10;99.90
15386;DHT22;7791;47.246;9.648;2022-12-18T12:44:34;-1.00;99.90
15386;DHT22;7791;47.246;9.648;2022-12-18T12:47:10;-0.90;99.90
15386;DHT22;7791;47.246;9.648;2022-12-18T12:49:38;-0.90;99.90
15386;DHT22;7791;47.246;9.648;2022-12-18T12:52:12;-0.50;99.90
15386;DHT22;7791;47.246;9.648;2022-12-18T12:54:40;-0.30;99.90
15386;DHT22;7791;47.246;9.648;2022-12-18T12:57:11;-0.50;99.90
15386;DHT22;7791;47.246;9.648;2022-12-18T12:59:49;-0.40;99.90
15386;DHT22;7791;47.246;9.648;2022-12-18T13:02:22;-0.30;99.90
15386;DHT22;7791;47.246;9.648;2022-12-18T13:05:00;-0.10;99.90
15386;DHT22;7791;47.246;9.648;2022-12-18T13:07:35;0.00;99.90
15386;DHT22;7791;47.246;9.648;2022-12-18T13:10:32;-0.30;99.90
15386;DHT22;7791;47.246;9.648;2022-12-18T13:13:02;-0.30;99.90
15386;DHT22;7791;47.246;9.648;2022-12-18T13:15:37;-0.50;99.90
15386;DHT22;7791;47.246;9.648;2022-12-18T13:18:13;-0.30;99.90
15386;DHT22;7791;47.246;9.648;2022-12-18T13:20:41;-0.10;99.90
15386;DHT22;7791;47.246;9.648;2022-12-18T13:23:30;-0.10;99.90
15386;DHT22;7791;47.246;9.648;2022-12-18T13:25:59;0.00;99.90
15386;DHT22;7791;47.246;9.648;2022-12-18T13:28:51;-0.10;99.90
15386;DHT22;7791;47.246;9.648;2022-12-18T13:34:18;-0.40;99.90
15386;DHT22;7791;47.246;9.648;2022-12-18T13:36:46;-0.40;99.90
15386;DHT22;7791;47.246;9.648;2022-12-18T13:39:33;-0.60;99.90
15386;DHT22;7791;47.246;9.648;2022-12-18T13:45:03;-0.90;99.90
15386;DHT22;7791;47.246;9.648;2022-12-18T13:47:50;-1.10;99.90
15386;DHT22;7791;47.246;9.648;2022-12-18T13:50:25;-1.20;99.90
15386;DHT22;7791;47.246;9.648;2022-12-18T13:52:53;-1.30;99.90
15386;DHT22;7791;47.246;9.648;2022-12-18T13:55:22;-1.50;99.90
15386;DHT22;7791;47.246;9.648;2022-12-18T13:57:49;-1.80;99.90
15386;DHT22;7791;47.246;9.648;2022-12-18T14:00:27;-2.00;99.90
15386;DHT22;7791;47.246;9.648;2022-12-18T14:02:53;-2.10;99.90
15386;DHT22;7791;47.246;9.648;2022-12-18T14:05:23;-2.00;99.90
15386;DHT22;7791;47.246;9.648;2022-12-18T14:07:51;-2.10;99.90
15386;DHT22;7791;47.246;9.648;2022-12-18T14:10:21;-2.10;99.90
15386;DHT22;7791;47.246;9.648;2022-12-18T14:12:49;-2.10;99.90
15386;DHT22;7791;47.246;9.648;2022-12-18T14:15:25;-2.10;99.90
15386;DHT22;7791;47.246;9.648;2022-12-18T14:17:58;-2.10;99.90
15386;DHT22;7791;47.246;9.648;2022-12-18T14:20:29;-2.30;99.90
15386;DHT22;7791;47.246;9.648;2022-12-18T14:22:56;-2.30;99.90
15386;DHT22;7791;47.246;9.648;2022-12-18T14:25:25;-2.30;99.90
15386;DHT22;7791;47.246;9.648;2022-12-18T14:27:59;-2.20;99.90
15386;DHT22;7791;47.246;9.648;2022-12-18T14:30:30;-2.20;99.90
15386;DHT22;7791;47.246;9.648;2022-12-18T14:33:01;-2.30;99.90
15386;DHT22;7791;47.246;9.648;2022-12-18T14:35:28;-2.20;99.90
15386;DHT22;7791;47.246;9.648;2022-12-18T14:38:08;-2.20;99.90
15386;DHT22;7791;47.246;9.648;2022-12-18T14:40:36;-2.20;99.90
15386;DHT22;7791;47.246;9.648;2022-12-18T14:43:02;-2.30;99.90
15386;DHT22;7791;47.246;9.648;2022-12-18T14:45:40;-2.30;99.90
15386;DHT22;7791;47.246;9.648;2022-12-18T14:48:14;-2.20;99.90
15386;DHT22;7791;47.246;9.648;2022-12-18T14:50:41;-2.10;99.90
15386;DHT22;7791;47.246;9.648;2022-12-18T14:53:18;-2.30;99.90
15386;DHT22;7791;47.246;9.648;2022-12-18T14:55:48;-2.30;99.90
15386;DHT22;7791;47.246;9.648;2022-12-18T14:58:15;-2.20;99.90
15386;DHT22;7791;47.246;9.648;2022-12-18T15:00:43;-2.10;99.90
15386;DHT22;7791;47.246;9.648;2022-12-18T15:03:17;-2.00;99.90
15386;DHT22;7791;47.246;9.648;2022-12-18T15:05:44;-2.00;99.90
15386;DHT22;7791;47.246;9.648;2022-12-18T15:08:28;-1.80;99.90
15386;DHT22;7791;47.246;9.648;2022-12-18T15:11:03;-1.70;99.90
15386;DHT22;7791;47.246;9.648;2022-12-18T15:13:29;-1.60;99.90
15386;DHT22;7791;47.246;9.648;2022-12-18T15:16:01;-1.60;99.90
15386;DHT22;7791;47.246;9.648;2022-12-18T15:18:41;-1.50;99.90
15386;DHT22;7791;47.246;9.648;2022-12-18T15:21:17;-1.40;99.90
15386;DHT22;7791;47.246;9.648;2022-12-18T15:23:47;-1.30;99.90
15386;DHT22;7791;47.246;9.648;2022-12-18T15:26:17;-1.20;99.90
15386;DHT22;7791;47.246;9.648;2022-12-18T15:28:48;-1.20;99.90
15386;DHT22;7791;47.246;9.648;2022-12-18T15:31:28;-1.20;99.90
15386;DHT22;7791;47.246;9.648;2022-12-18T15:34:18;-1.10;99.90
15386;DHT22;7791;47.246;9.648;2022-12-18T15:36:44;-1.30;99.90
15386;DHT22;7791;47.246;9.648;2022-12-18T15:39:13;-1.20;99.90
15386;DHT22;7791;47.246;9.648;2022-12-18T15:41:44;-1.20;99.90
15386;DHT22;7791;47.246;9.648;2022-12-18T15:44:22;-1.10;99.90
15386;DHT22;7791;47.246;9.648;2022-12-18T15:46:50;-1.10;99.90
15386;DHT22;7791;47.246;9.648;2022-12-18T15:49:17;-1.10;99.90
15386;DHT22;7791;47.246;9.648;2022-12-18T15:51:51;-1.10;99.90
15386;DHT22;7791;47.246;9.648;2022-12-18T15:54:17;-1.20;99.90
15386;DHT22;7791;47.246;9.648;2022-12-18T15:56:52;-1.20;99.90
15386;DHT22;7791;47.246;9.648;2022-12-18T15:59:20;-1.30;99.90
15386;DHT22;7791;47.246;9.648;2022-12-18T16:01:54;-1.40;99.90
15386;DHT22;7791;47.246;9.648;2022-12-18T16:04:40;-1.40;99.90
15386;DHT22;7791;47.246;9.648;2022-12-18T16:07:07;-1.50;99.90
15386;DHT22;7791;47.246;9.648;2022-12-18T16:09:36;-1.60;99.90
15386;DHT22;7791;47.246;9.648;2022-12-18T16:12:08;-1.80;99.90
15386;DHT22;7791;47.246;9.648;2022-12-18T16:14:39;-1.90;99.90
15386;DHT22;7791;47.246;9.648;2022-12-18T16:17:11;-1.80;99.90
15386;DHT22;7791;47.246;9.648;2022-12-18T16:19:37;-1.90;99.90